Weather at Livermore Municipal Airport

Public forecast

Using degrees Fahrenheit for public forecast. Weather courtesy of forecast.io.

Current aviation weather report (METAR) for Livermore Municipal Airport

2024/04/13 12:53 (retrieved 39 minutes ago)

KLVK 131253Z AUTO 28006KT 5SM -RA BR OVC043 09/08 A2983 RMK AO2 SLP098 P0012 T00890078

Aviation forecast (TAF) for Livermore Municipal Airport

2024/04/13 12:30 (retrieved 1 hour ago)

TAF KLVK 131129Z 1312/1412 20012G18KT 5SM -RA BKN030 FM131500 18016G22KT 6SM -RA OVC025 FM132200 14016KT 6SM -SHRA BKN035 FM140100 11015G23KT P6SM OVC050